sensor_id;sensor_type;location;lat;lon;timestamp;P1;durP1;ratioP1;P2;durP2;ratioP2
44766;SDS011;30487;48.716;9.272;2022-12-08T00:00:22;10.70;;;5.25;;
44766;SDS011;30487;48.716;9.272;2022-12-08T00:02:48;9.98;;;5.07;;
44766;SDS011;30487;48.716;9.272;2022-12-08T00:05:14;9.38;;;4.70;;
44766;SDS011;30487;48.716;9.272;2022-12-08T00:07:58;9.38;;;5.45;;
44766;SDS011;30487;48.716;9.272;2022-12-08T00:10:42;9.85;;;4.72;;
44766;SDS011;30487;48.716;9.272;2022-12-08T00:13:08;9.55;;;4.93;;
44766;SDS011;30487;48.716;9.272;2022-12-08T00:15:34;10.57;;;5.47;;
44766;SDS011;30487;48.716;9.272;2022-12-08T00:18:00;9.73;;;5.05;;
44766;SDS011;30487;48.716;9.272;2022-12-08T00:20:26;11.80;;;5.30;;
44766;SDS011;30487;48.716;9.272;2022-12-08T00:22:52;12.48;;;5.05;;
44766;SDS011;30487;48.716;9.272;2022-12-08T00:25:17;9.15;;;4.75;;
44766;SDS011;30487;48.716;9.272;2022-12-08T00:27:43;13.07;;;5.55;;
44766;SDS011;30487;48.716;9.272;2022-12-08T00:30:08;9.48;;;5.30;;
44766;SDS011;30487;48.716;9.272;2022-12-08T00:32:35;11.60;;;5.47;;
44766;SDS011;30487;48.716;9.272;2022-12-08T00:35:01;9.93;;;5.15;;
44766;SDS011;30487;48.716;9.272;2022-12-08T00:37:27;11.27;;;5.50;;
44766;SDS011;30487;48.716;9.272;2022-12-08T00:39:52;11.00;;;5.88;;
44766;SDS011;30487;48.716;9.272;2022-12-08T00:42:18;10.50;;;5.60;;
44766;SDS011;30487;48.716;9.272;2022-12-08T00:44:44;10.88;;;5.45;;
44766;SDS011;30487;48.716;9.272;2022-12-08T00:47:10;11.48;;;5.63;;
44766;SDS011;30487;48.716;9.272;2022-12-08T00:49:36;10.23;;;5.28;;
44766;SDS011;30487;48.716;9.272;2022-12-08T00:52:02;9.80;;;5.05;;
44766;SDS011;30487;48.716;9.272;2022-12-08T00:54:28;11.55;;;5.45;;
44766;SDS011;30487;48.716;9.272;2022-12-08T00:56:54;10.48;;;5.22;;
44766;SDS011;30487;48.716;9.272;2022-12-08T00:59:19;10.00;;;5.47;;
44766;SDS011;30487;48.716;9.272;2022-12-08T01:01:45;10.60;;;5.13;;
44766;SDS011;30487;48.716;9.272;2022-12-08T01:04:12;10.32;;;5.13;;
44766;SDS011;30487;48.716;9.272;2022-12-08T01:06:39;11.68;;;5.90;;
44766;SDS011;30487;48.716;9.272;2022-12-08T01:09:06;11.13;;;5.43;;
44766;SDS011;30487;48.716;9.272;2022-12-08T01:11:33;9.80;;;5.30;;
44766;SDS011;30487;48.716;9.272;2022-12-08T01:13:59;10.32;;;5.28;;
44766;SDS011;30487;48.716;9.272;2022-12-08T01:16:25;10.90;;;5.45;;
44766;SDS011;30487;48.716;9.272;2022-12-08T01:18:53;10.70;;;5.50;;
44766;SDS011;30487;48.716;9.272;2022-12-08T01:21:20;11.43;;;5.47;;
44766;SDS011;30487;48.716;9.272;2022-12-08T01:23:46;10.57;;;5.75;;
44766;SDS011;30487;48.716;9.272;2022-12-08T01:26:12;11.75;;;5.65;;
44766;SDS011;30487;48.716;9.272;2022-12-08T01:28:39;13.90;;;5.85;;
44766;SDS011;30487;48.716;9.272;2022-12-08T01:31:09;10.73;;;5.57;;
44766;SDS011;30487;48.716;9.272;2022-12-08T01:33:37;12.10;;;5.60;;
44766;SDS011;30487;48.716;9.272;2022-12-08T01:36:02;10.40;;;5.63;;
44766;SDS011;30487;48.716;9.272;2022-12-08T01:38:29;12.95;;;5.38;;
44766;SDS011;30487;48.716;9.272;2022-12-08T01:40:55;11.35;;;5.53;;
44766;SDS011;30487;48.716;9.272;2022-12-08T01:43:21;10.43;;;5.45;;
44766;SDS011;30487;48.716;9.272;2022-12-08T01:45:47;12.73;;;5.82;;
44766;SDS011;30487;48.716;9.272;2022-12-08T01:48:23;12.27;;;5.60;;
44766;SDS011;30487;48.716;9.272;2022-12-08T01:50:51;12.50;;;5.78;;
44766;SDS011;30487;48.716;9.272;2022-12-08T01:53:23;13.73;;;5.78;;
44766;SDS011;30487;48.716;9.272;2022-12-08T01:55:56;10.32;;;5.40;;
44766;SDS011;30487;48.716;9.272;2022-12-08T01:58:46;11.45;;;6.10;;
44766;SDS011;30487;48.716;9.272;2022-12-08T02:01:15;12.00;;;5.47;;
44766;SDS011;30487;48.716;9.272;2022-12-08T02:03:46;10.15;;;5.45;;
44766;SDS011;30487;48.716;9.272;2022-12-08T02:08:41;11.88;;;5.15;;
44766;SDS011;30487;48.716;9.272;2022-12-08T02:11:08;10.77;;;6.20;;
44766;SDS011;30487;48.716;9.272;2022-12-08T02:13:35;11.00;;;5.72;;
44766;SDS011;30487;48.716;9.272;2022-12-08T02:35:30;11.50;;;5.65;;
44766;SDS011;30487;48.716;9.272;2022-12-08T02:38:24;11.10;;;5.68;;
44766;SDS011;30487;48.716;9.272;2022-12-08T02:43:44;10.50;;;5.53;;
44766;SDS011;30487;48.716;9.272;2022-12-08T02:46:21;10.88;;;5.30;;
44766;SDS011;30487;48.716;9.272;2022-12-08T02:48:53;13.38;;;5.60;;
44766;SDS011;30487;48.716;9.272;2022-12-08T02:51:20;10.38;;;5.18;;
44766;SDS011;30487;48.716;9.272;2022-12-08T02:53:46;11.35;;;5.60;;
44766;SDS011;30487;48.716;9.272;2022-12-08T02:59:49;10.75;;;5.80;;
44766;SDS011;30487;48.716;9.272;2022-12-08T03:02:12;11.18;;;5.55;;
44766;SDS011;30487;48.716;9.272;2022-12-08T03:05:07;11.07;;;5.60;;
44766;SDS011;30487;48.716;9.272;2022-12-08T03:07:40;12.63;;;5.40;;
44766;SDS011;30487;48.716;9.272;2022-12-08T03:10:34;10.55;;;5.47;;
44766;SDS011;30487;48.716;9.272;2022-12-08T03:13:04;10.82;;;5.32;;
44766;SDS011;30487;48.716;9.272;2022-12-08T03:18:02;13.45;;;5.57;;
44766;SDS011;30487;48.716;9.272;2022-12-08T03:20:29;12.93;;;5.97;;
44766;SDS011;30487;48.716;9.272;2022-12-08T03:22:58;13.57;;;5.82;;
44766;SDS011;30487;48.716;9.272;2022-12-08T03:25:28;11.88;;;6.03;;
44766;SDS011;30487;48.716;9.272;2022-12-08T03:27:56;11.38;;;5.97;;
44766;SDS011;30487;48.716;9.272;2022-12-08T03:30:23;13.00;;;6.30;;
44766;SDS011;30487;48.716;9.272;2022-12-08T03:32:51;10.82;;;5.63;;
44766;SDS011;30487;48.716;9.272;2022-12-08T03:35:23;8.88;;;4.32;;
44766;SDS011;30487;48.716;9.272;2022-12-08T03:37:50;14.55;;;6.28;;
44766;SDS011;30487;48.716;9.272;2022-12-08T03:40:17;11.85;;;6.38;;
44766;SDS011;30487;48.716;9.272;2022-12-08T03:42:44;11.70;;;5.88;;
44766;SDS011;30487;48.716;9.272;2022-12-08T03:45:10;12.02;;;5.68;;
44766;SDS011;30487;48.716;9.272;2022-12-08T03:47:36;12.30;;;6.38;;
44766;SDS011;30487;48.716;9.272;2022-12-08T03:50:02;11.65;;;6.07;;
44766;SDS011;30487;48.716;9.272;2022-12-08T03:52:28;12.13;;;5.78;;
44766;SDS011;30487;48.716;9.272;2022-12-08T03:54:53;12.60;;;6.03;;
44766;SDS011;30487;48.716;9.272;2022-12-08T03:57:19;12.18;;;5.85;;
44766;SDS011;30487;48.716;9.272;2022-12-08T03:59:45;11.55;;;5.97;;
44766;SDS011;30487;48.716;9.272;2022-12-08T04:02:11;12.55;;;6.05;;
44766;SDS011;30487;48.716;9.272;2022-12-08T04:04:36;12.98;;;6.15;;
44766;SDS011;30487;48.716;9.272;2022-12-08T04:07:02;13.10;;;6.18;;
44766;SDS011;30487;48.716;9.272;2022-12-08T04:09:27;11.70;;;6.07;;
44766;SDS011;30487;48.716;9.272;2022-12-08T04:11:53;12.48;;;5.60;;
44766;SDS011;30487;48.716;9.272;2022-12-08T04:14:19;13.80;;;6.60;;
44766;SDS011;30487;48.716;9.272;2022-12-08T04:16:44;10.45;;;5.65;;
44766;SDS011;30487;48.716;9.272;2022-12-08T04:19:10;11.65;;;5.70;;
44766;SDS011;30487;48.716;9.272;2022-12-08T04:21:35;12.35;;;6.05;;
44766;SDS011;30487;48.716;9.272;2022-12-08T04:24:01;12.00;;;5.72;;
44766;SDS011;30487;48.716;9.272;2022-12-08T04:26:27;12.05;;;5.90;;
44766;SDS011;30487;48.716;9.272;2022-12-08T04:28:52;11.85;;;6.25;;
44766;SDS011;30487;48.716;9.272;2022-12-08T04:31:18;12.65;;;5.82;;
44766;SDS011;30487;48.716;9.272;2022-12-08T04:33:43;12.57;;;6.25;;
44766;SDS011;30487;48.716;9.272;2022-12-08T04:36:09;12.25;;;5.90;;
44766;SDS011;30487;48.716;9.272;2022-12-08T04:38:35;12.55;;;5.65;;
44766;SDS011;30487;48.716;9.272;2022-12-08T04:41:00;12.43;;;5.50;;
44766;SDS011;30487;48.716;9.272;2022-12-08T04:43:26;11.82;;;6.20;;
44766;SDS011;30487;48.716;9.272;2022-12-08T04:45:52;13.40;;;5.78;;
44766;SDS011;30487;48.716;9.272;2022-12-08T04:48:17;12.00;;;5.35;;
44766;SDS011;30487;48.716;9.272;2022-12-08T04:50:43;13.02;;;5.43;;
44766;SDS011;30487;48.716;9.272;2022-12-08T04:53:10;10.52;;;5.57;;
44766;SDS011;30487;48.716;9.272;2022-12-08T04:55:40;11.13;;;5.35;;
44766;SDS011;30487;48.716;9.272;2022-12-08T04:58:11;11.95;;;5.15;;
44766;SDS011;30487;48.716;9.272;2022-12-08T05:00:38;13.32;;;5.60;;
44766;SDS011;30487;48.716;9.272;2022-12-08T05:03:04;11.20;;;5.57;;
44766;SDS011;30487;48.716;9.272;2022-12-08T05:05:30;12.88;;;5.55;;
44766;SDS011;30487;48.716;9.272;2022-12-08T05:07:55;13.27;;;5.88;;
44766;SDS011;30487;48.716;9.272;2022-12-08T05:10:21;10.68;;;5.60;;
44766;SDS011;30487;48.716;9.272;2022-12-08T05:12:47;11.05;;;5.55;;
44766;SDS011;30487;48.716;9.272;2022-12-08T05:15:12;11.32;;;5.63;;
44766;SDS011;30487;48.716;9.272;2022-12-08T05:17:38;11.57;;;6.05;;
44766;SDS011;30487;48.716;9.272;2022-12-08T05:20:04;11.45;;;5.68;;
44766;SDS011;30487;48.716;9.272;2022-12-08T05:22:30;11.68;;;5.45;;
44766;SDS011;30487;48.716;9.272;2022-12-08T05:24:56;13.85;;;6.03;;
44766;SDS011;30487;48.716;9.272;2022-12-08T05:27:21;10.40;;;5.13;;
44766;SDS011;30487;48.716;9.272;2022-12-08T05:29:47;10.80;;;5.30;;
44766;SDS011;30487;48.716;9.272;2022-12-08T05:32:14;10.45;;;5.03;;
44766;SDS011;30487;48.716;9.272;2022-12-08T05:34:39;10.18;;;4.97;;
44766;SDS011;30487;48.716;9.272;2022-12-08T05:37:05;9.95;;;5.32;;
44766;SDS011;30487;48.716;9.272;2022-12-08T05:39:31;12.55;;;5.85;;
44766;SDS011;30487;48.716;9.272;2022-12-08T05:41:56;10.07;;;4.95;;
44766;SDS011;30487;48.716;9.272;2022-12-08T05:44:23;9.20;;;5.00;;
44766;SDS011;30487;48.716;9.272;2022-12-08T05:46:49;11.57;;;5.35;;
44766;SDS011;30487;48.716;9.272;2022-12-08T05:49:14;10.90;;;5.38;;
44766;SDS011;30487;48.716;9.272;2022-12-08T05:51:40;11.07;;;5.20;;
44766;SDS011;30487;48.716;9.272;2022-12-08T05:54:05;10.48;;;5.07;;
44766;SDS011;30487;48.716;9.272;2022-12-08T05:56:31;12.50;;;5.50;;
44766;SDS011;30487;48.716;9.272;2022-12-08T05:58:56;10.50;;;5.35;;
44766;SDS011;30487;48.716;9.272;2022-12-08T06:01:26;11.10;;;5.63;;
44766;SDS011;30487;48.716;9.272;2022-12-08T06:03:54;13.40;;;5.97;;
44766;SDS011;30487;48.716;9.272;2022-12-08T06:06:21;11.35;;;5.20;;
44766;SDS011;30487;48.716;9.272;2022-12-08T06:08:47;10.32;;;5.18;;
44766;SDS011;30487;48.716;9.272;2022-12-08T06:11:31;9.65;;;5.20;;
44766;SDS011;30487;48.716;9.272;2022-12-08T06:13:57;11.38;;;5.68;;
44766;SDS011;30487;48.716;9.272;2022-12-08T06:16:24;10.55;;;5.15;;
44766;SDS011;30487;48.716;9.272;2022-12-08T06:18:50;11.07;;;5.25;;
44766;SDS011;30487;48.716;9.272;2022-12-08T06:21:17;10.50;;;5.63;;
44766;SDS011;30487;48.716;9.272;2022-12-08T06:23:43;11.57;;;5.45;;
44766;SDS011;30487;48.716;9.272;2022-12-08T06:26:12;11.05;;;5.32;;
44766;SDS011;30487;48.716;9.272;2022-12-08T06:28:39;13.20;;;5.55;;
44766;SDS011;30487;48.716;9.272;2022-12-08T06:31:08;10.38;;;5.82;;
44766;SDS011;30487;48.716;9.272;2022-12-08T06:33:39;11.05;;;5.50;;
44766;SDS011;30487;48.716;9.272;2022-12-08T06:36:05;11.73;;;5.57;;
44766;SDS011;30487;48.716;9.272;2022-12-08T06:38:31;12.25;;;5.72;;
44766;SDS011;30487;48.716;9.272;2022-12-08T06:40:57;12.38;;;5.75;;
44766;SDS011;30487;48.716;9.272;2022-12-08T06:43:24;11.82;;;5.53;;
44766;SDS011;30487;48.716;9.272;2022-12-08T06:45:50;11.25;;;5.78;;
44766;SDS011;30487;48.716;9.272;2022-12-08T06:48:16;13.23;;;5.82;;
44766;SDS011;30487;48.716;9.272;2022-12-08T06:50:42;11.65;;;5.70;;
44766;SDS011;30487;48.716;9.272;2022-12-08T06:53:12;11.25;;;6.05;;
44766;SDS011;30487;48.716;9.272;2022-12-08T06:55:42;12.60;;;5.72;;
44766;SDS011;30487;48.716;9.272;2022-12-08T06:58:09;12.20;;;5.63;;
44766;SDS011;30487;48.716;9.272;2022-12-08T07:00:35;16.70;;;7.35;;
44766;SDS011;30487;48.716;9.272;2022-12-08T07:03:01;15.02;;;7.57;;
44766;SDS011;30487;48.716;9.272;2022-12-08T07:05:27;11.40;;;6.22;;
44766;SDS011;30487;48.716;9.272;2022-12-08T07:07:52;12.18;;;5.70;;
44766;SDS011;30487;48.716;9.272;2022-12-08T07:10:18;14.95;;;6.38;;
44766;SDS011;30487;48.716;9.272;2022-12-08T07:12:43;13.63;;;6.60;;
44766;SDS011;30487;48.716;9.272;2022-12-08T07:15:09;12.98;;;5.90;;
44766;SDS011;30487;48.716;9.272;2022-12-08T07:17:35;15.35;;;6.57;;
44766;SDS011;30487;48.716;9.272;2022-12-08T07:20:00;13.13;;;6.30;;
44766;SDS011;30487;48.716;9.272;2022-12-08T07:22:26;11.50;;;6.20;;
44766;SDS011;30487;48.716;9.272;2022-12-08T07:24:51;16.80;;;7.20;;
44766;SDS011;30487;48.716;9.272;2022-12-08T07:27:17;20.67;;;9.00;;
44766;SDS011;30487;48.716;9.272;2022-12-08T07:29:42;16.65;;;8.55;;
44766;SDS011;30487;48.716;9.272;2022-12-08T07:32:08;17.52;;;6.90;;
44766;SDS011;30487;48.716;9.272;2022-12-08T07:34:34;12.18;;;5.97;;
44766;SDS011;30487;48.716;9.272;2022-12-08T07:37:00;13.43;;;6.38;;
44766;SDS011;30487;48.716;9.272;2022-12-08T07:39:26;12.55;;;6.28;;
44766;SDS011;30487;48.716;9.272;2022-12-08T07:41:52;11.75;;;6.00;;
44766;SDS011;30487;48.716;9.272;2022-12-08T07:44:17;12.07;;;5.70;;
44766;SDS011;30487;48.716;9.272;2022-12-08T07:46:43;10.73;;;5.72;;
44766;SDS011;30487;48.716;9.272;2022-12-08T07:49:08;12.20;;;5.90;;
44766;SDS011;30487;48.716;9.272;2022-12-08T07:51:34;11.23;;;6.10;;
44766;SDS011;30487;48.716;9.272;2022-12-08T07:54:00;11.43;;;5.50;;
44766;SDS011;30487;48.716;9.272;2022-12-08T07:56:25;13.35;;;5.65;;
44766;SDS011;30487;48.716;9.272;2022-12-08T07:58:51;12.13;;;6.03;;
44766;SDS011;30487;48.716;9.272;2022-12-08T08:01:20;10.35;;;5.43;;
44766;SDS011;30487;48.716;9.272;2022-12-08T08:03:54;11.85;;;5.70;;
44766;SDS011;30487;48.716;9.272;2022-12-08T08:06:21;12.32;;;5.50;;
44766;SDS011;30487;48.716;9.272;2022-12-08T08:08:47;11.30;;;5.20;;
44766;SDS011;30487;48.716;9.272;2022-12-08T08:11:13;10.43;;;5.20;;
44766;SDS011;30487;48.716;9.272;2022-12-08T08:13:39;8.80;;;5.03;;
44766;SDS011;30487;48.716;9.272;2022-12-08T08:16:06;10.68;;;5.38;;
44766;SDS011;30487;48.716;9.272;2022-12-08T08:18:33;13.55;;;5.85;;
44766;SDS011;30487;48.716;9.272;2022-12-08T08:20:59;10.98;;;5.65;;
44766;SDS011;30487;48.716;9.272;2022-12-08T08:23:26;12.57;;;6.03;;
44766;SDS011;30487;48.716;9.272;2022-12-08T08:25:52;11.02;;;6.20;;
44766;SDS011;30487;48.716;9.272;2022-12-08T08:28:18;12.38;;;5.82;;
44766;SDS011;30487;48.716;9.272;2022-12-08T08:30:44;12.88;;;5.57;;
44766;SDS011;30487;48.716;9.272;2022-12-08T08:33:10;10.55;;;5.65;;
44766;SDS011;30487;48.716;9.272;2022-12-08T08:35:36;13.10;;;5.95;;
44766;SDS011;30487;48.716;9.272;2022-12-08T08:38:02;13.13;;;6.03;;
44766;SDS011;30487;48.716;9.272;2022-12-08T08:40:27;11.93;;;5.82;;
44766;SDS011;30487;48.716;9.272;2022-12-08T08:42:53;16.50;;;5.80;;
44766;SDS011;30487;48.716;9.272;2022-12-08T08:45:18;12.30;;;6.10;;
44766;SDS011;30487;48.716;9.272;2022-12-08T08:47:44;11.52;;;5.82;;
44766;SDS011;30487;48.716;9.272;2022-12-08T08:50:10;13.32;;;5.85;;
44766;SDS011;30487;48.716;9.272;2022-12-08T08:52:36;10.40;;;5.63;;
44766;SDS011;30487;48.716;9.272;2022-12-08T08:55:02;12.55;;;5.82;;
44766;SDS011;30487;48.716;9.272;2022-12-08T08:57:27;12.23;;;5.93;;
44766;SDS011;30487;48.716;9.272;2022-12-08T08:59:53;10.82;;;5.40;;
44766;SDS011;30487;48.716;9.272;2022-12-08T09:02:19;10.70;;;5.82;;
44766;SDS011;30487;48.716;9.272;2022-12-08T09:04:45;14.80;;;6.15;;
44766;SDS011;30487;48.716;9.272;2022-12-08T09:07:11;12.50;;;6.50;;
44766;SDS011;30487;48.716;9.272;2022-12-08T09:09:37;10.13;;;5.25;;
44766;SDS011;30487;48.716;9.272;2022-12-08T09:12:03;10.82;;;5.50;;
44766;SDS011;30487;48.716;9.272;2022-12-08T09:14:29;11.55;;;5.68;;
44766;SDS011;30487;48.716;9.272;2022-12-08T09:16:55;15.60;;;6.22;;
44766;SDS011;30487;48.716;9.272;2022-12-08T09:19:20;10.80;;;5.75;;
44766;SDS011;30487;48.716;9.272;2022-12-08T09:21:46;12.55;;;6.32;;
44766;SDS011;30487;48.716;9.272;2022-12-08T09:24:12;12.13;;;5.90;;
44766;SDS011;30487;48.716;9.272;2022-12-08T09:26:41;10.18;;;5.03;;
44766;SDS011;30487;48.716;9.272;2022-12-08T09:29:08;10.80;;;5.03;;
44766;SDS011;30487;48.716;9.272;2022-12-08T09:31:34;11.30;;;5.50;;
44766;SDS011;30487;48.716;9.272;2022-12-08T09:34:00;12.35;;;5.30;;
44766;SDS011;30487;48.716;9.272;2022-12-08T09:36:26;9.65;;;4.78;;
44766;SDS011;30487;48.716;9.272;2022-12-08T09:38:52;9.60;;;5.07;;
44766;SDS011;30487;48.716;9.272;2022-12-08T09:41:30;10.60;;;5.15;;
44766;SDS011;30487;48.716;9.272;2022-12-08T09:44:03;11.07;;;4.68;;
44766;SDS011;30487;48.716;9.272;2022-12-08T09:46:50;8.98;;;4.80;;
44766;SDS011;30487;48.716;9.272;2022-12-08T09:49:17;9.85;;;5.18;;
44766;SDS011;30487;48.716;9.272;2022-12-08T09:51:46;8.18;;;4.43;;
44766;SDS011;30487;48.716;9.272;2022-12-08T09:56:45;7.00;;;3.90;;
44766;SDS011;30487;48.716;9.272;2022-12-08T10:01:51;9.98;;;4.43;;
44766;SDS011;30487;48.716;9.272;2022-12-08T10:12:51;8.57;;;3.72;;
44766;SDS011;30487;48.716;9.272;2022-12-08T10:18:32;7.03;;;3.67;;
44766;SDS011;30487;48.716;9.272;2022-12-08T10:21:04;7.25;;;3.83;;
44766;SDS011;30487;48.716;9.272;2022-12-08T10:23:40;8.02;;;3.78;;
44766;SDS011;30487;48.716;9.272;2022-12-08T10:26:18;7.22;;;3.72;;
44766;SDS011;30487;48.716;9.272;2022-12-08T10:28:45;7.43;;;3.78;;
44766;SDS011;30487;48.716;9.272;2022-12-08T10:31:21;6.15;;;3.38;;
44766;SDS011;30487;48.716;9.272;2022-12-08T10:33:51;6.03;;;3.17;;
44766;SDS011;30487;48.716;9.272;2022-12-08T10:36:42;7.18;;;3.65;;
44766;SDS011;30487;48.716;9.272;2022-12-08T10:42:22;6.28;;;3.15;;
44766;SDS011;30487;48.716;9.272;2022-12-08T10:47:20;5.25;;;3.15;;
44766;SDS011;30487;48.716;9.272;2022-12-08T10:49:47;5.90;;;3.30;;
44766;SDS011;30487;48.716;9.272;2022-12-08T10:52:53;6.35;;;3.33;;
44766;SDS011;30487;48.716;9.272;2022-12-08T10:55:21;5.85;;;3.25;;
44766;SDS011;30487;48.716;9.272;2022-12-08T10:57:47;8.20;;;3.38;;
44766;SDS011;30487;48.716;9.272;2022-12-08T11:00:34;5.68;;;3.53;;
44766;SDS011;30487;48.716;9.272;2022-12-08T11:03:03;5.78;;;3.00;;
44766;SDS011;30487;48.716;9.272;2022-12-08T11:05:33;4.70;;;2.97;;
44766;SDS011;30487;48.716;9.272;2022-12-08T11:08:00;6.57;;;3.05;;
44766;SDS011;30487;48.716;9.272;2022-12-08T11:10:35;5.95;;;3.15;;
44766;SDS011;30487;48.716;9.272;2022-12-08T11:13:12;6.72;;;3.47;;
44766;SDS011;30487;48.716;9.272;2022-12-08T11:15:45;6.38;;;3.53;;
44766;SDS011;30487;48.716;9.272;2022-12-08T11:18:27;4.82;;;3.15;;
44766;SDS011;30487;48.716;9.272;2022-12-08T11:23:23;5.28;;;2.70;;
44766;SDS011;30487;48.716;9.272;2022-12-08T11:25:50;5.35;;;3.00;;
44766;SDS011;30487;48.716;9.272;2022-12-08T11:28:18;5.78;;;2.92;;
44766;SDS011;30487;48.716;9.272;2022-12-08T11:30:48;4.45;;;2.85;;
44766;SDS011;30487;48.716;9.272;2022-12-08T11:33:22;6.68;;;3.05;;
44766;SDS011;30487;48.716;9.272;2022-12-08T11:35:53;5.53;;;2.80;;
44766;SDS011;30487;48.716;9.272;2022-12-08T11:38:27;5.32;;;2.78;;
44766;SDS011;30487;48.716;9.272;2022-12-08T11:41:04;5.32;;;2.75;;
44766;SDS011;30487;48.716;9.272;2022-12-08T11:43:39;5.10;;;2.67;;
44766;SDS011;30487;48.716;9.272;2022-12-08T11:51:55;5.13;;;3.03;;
44766;SDS011;30487;48.716;9.272;2022-12-08T11:54:34;5.60;;;2.78;;
44766;SDS011;30487;48.716;9.272;2022-12-08T11:57:07;7.07;;;3.20;;
44766;SDS011;30487;48.716;9.272;2022-12-08T11:59:38;5.80;;;3.47;;
44766;SDS011;30487;48.716;9.272;2022-12-08T12:02:18;7.55;;;3.80;;
44766;SDS011;30487;48.716;9.272;2022-12-08T12:05:02;7.70;;;3.38;;
44766;SDS011;30487;48.716;9.272;2022-12-08T12:24:03;4.03;;;2.38;;
44766;SDS011;30487;48.716;9.272;2022-12-08T12:26:38;4.03;;;2.20;;
44766;SDS011;30487;48.716;9.272;2022-12-08T12:29:22;4.78;;;2.35;;
44766;SDS011;30487;48.716;9.272;2022-12-08T12:31:53;7.18;;;2.50;;
44766;SDS011;30487;48.716;9.272;2022-12-08T12:34:30;4.55;;;2.70;;
44766;SDS011;30487;48.716;9.272;2022-12-08T12:37:16;5.25;;;2.72;;
44766;SDS011;30487;48.716;9.272;2022-12-08T12:53:05;4.30;;;2.75;;
44766;SDS011;30487;48.716;9.272;2022-12-08T12:55:54;4.88;;;2.70;;
44766;SDS011;30487;48.716;9.272;2022-12-08T13:03:43;4.70;;;2.55;;
44766;SDS011;30487;48.716;9.272;2022-12-08T13:06:22;5.60;;;2.47;;
44766;SDS011;30487;48.716;9.272;2022-12-08T13:08:56;4.10;;;2.50;;
44766;SDS011;30487;48.716;9.272;2022-12-08T13:11:23;4.30;;;2.78;;
44766;SDS011;30487;48.716;9.272;2022-12-08T13:13:59;5.82;;;2.75;;
44766;SDS011;30487;48.716;9.272;2022-12-08T13:16:47;5.78;;;2.80;;
44766;SDS011;30487;48.716;9.272;2022-12-08T13:19:19;4.88;;;2.58;;
44766;SDS011;30487;48.716;9.272;2022-12-08T13:21:46;4.45;;;2.80;;
44766;SDS011;30487;48.716;9.272;2022-12-08T13:24:13;5.07;;;2.80;;
44766;SDS011;30487;48.716;9.272;2022-12-08T13:29:24;4.93;;;2.63;;
44766;SDS011;30487;48.716;9.272;2022-12-08T13:31:57;6.18;;;2.72;;
44766;SDS011;30487;48.716;9.272;2022-12-08T13:37:03;5.28;;;2.55;;
44766;SDS011;30487;48.716;9.272;2022-12-08T13:42:18;5.60;;;2.85;;
44766;SDS011;30487;48.716;9.272;2022-12-08T13:44:53;6.82;;;2.85;;
44766;SDS011;30487;48.716;9.272;2022-12-08T13:47:33;4.90;;;2.60;;
44766;SDS011;30487;48.716;9.272;2022-12-08T13:55:27;4.90;;;2.60;;
44766;SDS011;30487;48.716;9.272;2022-12-08T13:57:58;5.95;;;2.47;;
44766;SDS011;30487;48.716;9.272;2022-12-08T14:00:24;5.95;;;2.47;;
44766;SDS011;30487;48.716;9.272;2022-12-08T14:02:55;6.03;;;2.30;;
44766;SDS011;30487;48.716;9.272;2022-12-08T14:05:23;8.40;;;2.55;;
44766;SDS011;30487;48.716;9.272;2022-12-08T14:07:53;5.35;;;2.72;;
44766;SDS011;30487;48.716;9.272;2022-12-08T14:10:25;4.80;;;2.33;;
44766;SDS011;30487;48.716;9.272;2022-12-08T14:12:58;5.38;;;2.50;;
44766;SDS011;30487;48.716;9.272;2022-12-08T14:15:35;3.75;;;2.20;;
44766;SDS011;30487;48.716;9.272;2022-12-08T14:18:00;4.22;;;2.20;;
44766;SDS011;30487;48.716;9.272;2022-12-08T14:22:56;3.97;;;2.20;;
44766;SDS011;30487;48.716;9.272;2022-12-08T14:25:23;6.57;;;2.20;;
44766;SDS011;30487;48.716;9.272;2022-12-08T14:27:55;5.05;;;2.45;;
44766;SDS011;30487;48.716;9.272;2022-12-08T14:30:27;4.88;;;2.53;;
44766;SDS011;30487;48.716;9.272;2022-12-08T14:32:57;4.18;;;2.40;;
44766;SDS011;30487;48.716;9.272;2022-12-08T14:35:31;6.20;;;2.70;;
44766;SDS011;30487;48.716;9.272;2022-12-08T14:38:02;6.00;;;2.45;;
44766;SDS011;30487;48.716;9.272;2022-12-08T14:40:39;5.35;;;2.60;;
44766;SDS011;30487;48.716;9.272;2022-12-08T14:45:33;7.85;;;2.47;;
44766;SDS011;30487;48.716;9.272;2022-12-08T14:51:00;8.23;;;3.15;;
44766;SDS011;30487;48.716;9.272;2022-12-08T14:53:39;5.93;;;3.13;;
44766;SDS011;30487;48.716;9.272;2022-12-08T14:59:39;6.78;;;3.10;;
44766;SDS011;30487;48.716;9.272;2022-12-08T15:04:40;7.70;;;3.55;;
44766;SDS011;30487;48.716;9.272;2022-12-08T15:09:46;6.80;;;3.25;;
44766;SDS011;30487;48.716;9.272;2022-12-08T15:14:53;6.05;;;2.90;;
44766;SDS011;30487;48.716;9.272;2022-12-08T15:20:04;7.30;;;3.03;;
44766;SDS011;30487;48.716;9.272;2022-12-08T15:22:31;11.00;;;3.35;;
44766;SDS011;30487;48.716;9.272;2022-12-08T15:24:57;10.07;;;3.47;;
44766;SDS011;30487;48.716;9.272;2022-12-08T15:27:24;6.35;;;3.33;;
44766;SDS011;30487;48.716;9.272;2022-12-08T15:29:50;6.80;;;3.22;;
44766;SDS011;30487;48.716;9.272;2022-12-08T15:32:18;7.03;;;3.42;;
44766;SDS011;30487;48.716;9.272;2022-12-08T15:34:45;8.30;;;3.15;;
44766;SDS011;30487;48.716;9.272;2022-12-08T15:37:21;8.10;;;3.40;;
44766;SDS011;30487;48.716;9.272;2022-12-08T15:39:48;8.23;;;3.40;;
44766;SDS011;30487;48.716;9.272;2022-12-08T15:42:14;8.40;;;3.65;;
44766;SDS011;30487;48.716;9.272;2022-12-08T15:44:40;7.43;;;2.95;;
44766;SDS011;30487;48.716;9.272;2022-12-08T15:47:10;7.97;;;3.40;;
44766;SDS011;30487;48.716;9.272;2022-12-08T15:49:43;7.50;;;3.35;;
44766;SDS011;30487;48.716;9.272;2022-12-08T15:52:14;7.45;;;3.50;;
44766;SDS011;30487;48.716;9.272;2022-12-08T15:57:17;5.63;;;3.17;;
44766;SDS011;30487;48.716;9.272;2022-12-08T15:59:46;7.38;;;3.47;;
44766;SDS011;30487;48.716;9.272;2022-12-08T16:02:12;8.43;;;3.10;;
44766;SDS011;30487;48.716;9.272;2022-12-08T16:04:38;12.38;;;3.65;;
44766;SDS011;30487;48.716;9.272;2022-12-08T16:07:04;8.60;;;3.78;;
44766;SDS011;30487;48.716;9.272;2022-12-08T16:09:39;11.88;;;3.50;;
44766;SDS011;30487;48.716;9.272;2022-12-08T16:12:19;7.75;;;3.53;;
44766;SDS011;30487;48.716;9.272;2022-12-08T16:15:04;7.68;;;3.60;;
44766;SDS011;30487;48.716;9.272;2022-12-08T16:17:30;7.72;;;3.60;;
44766;SDS011;30487;48.716;9.272;2022-12-08T16:19:57;10.18;;;3.72;;
44766;SDS011;30487;48.716;9.272;2022-12-08T16:22:24;6.60;;;3.63;;
44766;SDS011;30487;48.716;9.272;2022-12-08T16:24:52;7.80;;;3.70;;
44766;SDS011;30487;48.716;9.272;2022-12-08T16:27:22;7.07;;;3.47;;
44766;SDS011;30487;48.716;9.272;2022-12-08T16:32:19;10.93;;;4.25;;
44766;SDS011;30487;48.716;9.272;2022-12-08T16:34:45;8.77;;;3.92;;
44766;SDS011;30487;48.716;9.272;2022-12-08T16:37:13;8.02;;;3.88;;
44766;SDS011;30487;48.716;9.272;2022-12-08T16:39:43;10.90;;;3.78;;
44766;SDS011;30487;48.716;9.272;2022-12-08T16:42:16;8.13;;;3.90;;
44766;SDS011;30487;48.716;9.272;2022-12-08T16:45:26;9.57;;;3.83;;
44766;SDS011;30487;48.716;9.272;2022-12-08T16:47:59;8.27;;;3.65;;
44766;SDS011;30487;48.716;9.272;2022-12-08T16:50:29;10.43;;;3.90;;
44766;SDS011;30487;48.716;9.272;2022-12-08T16:52:58;8.98;;;3.97;;
44766;SDS011;30487;48.716;9.272;2022-12-08T16:55:24;8.85;;;3.67;;
44766;SDS011;30487;48.716;9.272;2022-12-08T16:57:50;9.23;;;3.55;;
44766;SDS011;30487;48.716;9.272;2022-12-08T17:00:17;8.80;;;4.18;;
44766;SDS011;30487;48.716;9.272;2022-12-08T17:02:44;8.88;;;3.80;;
44766;SDS011;30487;48.716;9.272;2022-12-08T17:05:11;9.30;;;3.63;;
44766;SDS011;30487;48.716;9.272;2022-12-08T17:07:39;9.85;;;4.15;;